sensor_id;sensor_type;location;lat;lon;timestamp;P1;durP1;ratioP1;P2;durP2;ratioP2
70549;SDS011;58101;48.658;2.328;2022-08-19T00:01:16;10.55;;;5.57;;
70549;SDS011;58101;48.658;2.328;2022-08-19T00:03:42;13.20;;;6.20;;
70549;SDS011;58101;48.658;2.328;2022-08-19T00:06:08;11.82;;;5.95;;
70549;SDS011;58101;48.658;2.328;2022-08-19T00:08:34;15.30;;;6.18;;
70549;SDS011;58101;48.658;2.328;2022-08-19T00:11:01;11.43;;;5.88;;
70549;SDS011;58101;48.658;2.328;2022-08-19T00:13:26;12.30;;;6.20;;
70549;SDS011;58101;48.658;2.328;2022-08-19T00:15:53;12.50;;;5.90;;
70549;SDS011;58101;48.658;2.328;2022-08-19T00:18:20;10.57;;;5.95;;
70549;SDS011;58101;48.658;2.328;2022-08-19T00:20:46;11.40;;;5.63;;
70549;SDS011;58101;48.658;2.328;2022-08-19T00:23:11;13.02;;;5.97;;
70549;SDS011;58101;48.658;2.328;2022-08-19T00:25:37;11.52;;;5.65;;
70549;SDS011;58101;48.658;2.328;2022-08-19T00:28:03;12.15;;;6.03;;
70549;SDS011;58101;48.658;2.328;2022-08-19T00:30:29;9.55;;;5.28;;
70549;SDS011;58101;48.658;2.328;2022-08-19T00:32:55;13.18;;;5.90;;
70549;SDS011;58101;48.658;2.328;2022-08-19T00:35:22;10.70;;;5.50;;
70549;SDS011;58101;48.658;2.328;2022-08-19T00:37:48;11.10;;;5.75;;
70549;SDS011;58101;48.658;2.328;2022-08-19T00:40:14;10.73;;;5.18;;
70549;SDS011;58101;48.658;2.328;2022-08-19T00:42:41;9.60;;;5.32;;
70549;SDS011;58101;48.658;2.328;2022-08-19T00:47:35;10.35;;;5.50;;
70549;SDS011;58101;48.658;2.328;2022-08-19T00:50:00;9.38;;;5.10;;
70549;SDS011;58101;48.658;2.328;2022-08-19T00:52:28;10.98;;;5.30;;
70549;SDS011;58101;48.658;2.328;2022-08-19T00:57:30;10.05;;;4.93;;
70549;SDS011;58101;48.658;2.328;2022-08-19T00:59:59;9.68;;;5.10;;
70549;SDS011;58101;48.658;2.328;2022-08-19T01:02:28;10.35;;;5.43;;
70549;SDS011;58101;48.658;2.328;2022-08-19T01:04:55;12.20;;;5.22;;
70549;SDS011;58101;48.658;2.328;2022-08-19T01:07:21;11.95;;;5.90;;
70549;SDS011;58101;48.658;2.328;2022-08-19T01:09:47;12.02;;;5.75;;
70549;SDS011;58101;48.658;2.328;2022-08-19T01:12:14;10.20;;;5.30;;
70549;SDS011;58101;48.658;2.328;2022-08-19T01:14:40;11.00;;;5.82;;
70549;SDS011;58101;48.658;2.328;2022-08-19T01:17:09;10.07;;;5.60;;
70549;SDS011;58101;48.658;2.328;2022-08-19T01:19:37;12.30;;;5.60;;
70549;SDS011;58101;48.658;2.328;2022-08-19T01:22:10;13.15;;;5.50;;
70549;SDS011;58101;48.658;2.328;2022-08-19T01:24:41;11.38;;;5.15;;
70549;SDS011;58101;48.658;2.328;2022-08-19T01:27:07;9.35;;;5.05;;
70549;SDS011;58101;48.658;2.328;2022-08-19T01:29:34;11.80;;;5.30;;
70549;SDS011;58101;48.658;2.328;2022-08-19T01:32:06;11.75;;;5.63;;
70549;SDS011;58101;48.658;2.328;2022-08-19T01:34:34;11.55;;;5.38;;
70549;SDS011;58101;48.658;2.328;2022-08-19T01:37:00;10.05;;;5.35;;
70549;SDS011;58101;48.658;2.328;2022-08-19T01:39:33;11.30;;;5.97;;
70549;SDS011;58101;48.658;2.328;2022-08-19T01:44:28;11.20;;;5.50;;
70549;SDS011;58101;48.658;2.328;2022-08-19T01:46:54;12.05;;;5.85;;
70549;SDS011;58101;48.658;2.328;2022-08-19T01:49:21;11.68;;;5.70;;
70549;SDS011;58101;48.658;2.328;2022-08-19T01:51:48;11.73;;;6.05;;
70549;SDS011;58101;48.658;2.328;2022-08-19T01:54:16;12.63;;;6.20;;
70549;SDS011;58101;48.658;2.328;2022-08-19T01:56:43;10.98;;;5.57;;
70549;SDS011;58101;48.658;2.328;2022-08-19T01:59:10;11.18;;;5.63;;
70549;SDS011;58101;48.658;2.328;2022-08-19T02:01:39;13.00;;;6.03;;
70549;SDS011;58101;48.658;2.328;2022-08-19T02:04:05;10.43;;;5.38;;
70549;SDS011;58101;48.658;2.328;2022-08-19T02:06:31;12.35;;;5.80;;
70549;SDS011;58101;48.658;2.328;2022-08-19T02:08:57;11.55;;;6.07;;
70549;SDS011;58101;48.658;2.328;2022-08-19T02:11:28;10.32;;;5.93;;
70549;SDS011;58101;48.658;2.328;2022-08-19T02:13:57;11.15;;;6.10;;
70549;SDS011;58101;48.658;2.328;2022-08-19T02:16:23;13.23;;;6.20;;
70549;SDS011;58101;48.658;2.328;2022-08-19T02:18:49;11.50;;;5.55;;
70549;SDS011;58101;48.658;2.328;2022-08-19T02:21:16;12.15;;;5.38;;
70549;SDS011;58101;48.658;2.328;2022-08-19T02:23:44;11.38;;;6.30;;
70549;SDS011;58101;48.658;2.328;2022-08-19T02:28:35;12.30;;;5.80;;
70549;SDS011;58101;48.658;2.328;2022-08-19T02:31:01;15.27;;;6.25;;
70549;SDS011;58101;48.658;2.328;2022-08-19T02:33:27;10.23;;;5.45;;
70549;SDS011;58101;48.658;2.328;2022-08-19T02:35:53;10.35;;;5.50;;
70549;SDS011;58101;48.658;2.328;2022-08-19T02:38:19;10.00;;;5.60;;
70549;SDS011;58101;48.658;2.328;2022-08-19T02:40:51;10.18;;;5.55;;
70549;SDS011;58101;48.658;2.328;2022-08-19T02:43:19;12.70;;;6.22;;
70549;SDS011;58101;48.658;2.328;2022-08-19T02:45:46;12.10;;;6.07;;
70549;SDS011;58101;48.658;2.328;2022-08-19T02:48:13;12.90;;;5.80;;
70549;SDS011;58101;48.658;2.328;2022-08-19T02:50:44;12.93;;;5.80;;
70549;SDS011;58101;48.658;2.328;2022-08-19T02:53:10;14.65;;;6.53;;
70549;SDS011;58101;48.658;2.328;2022-08-19T02:55:35;12.68;;;6.30;;
70549;SDS011;58101;48.658;2.328;2022-08-19T02:58:06;10.43;;;5.60;;
70549;SDS011;58101;48.658;2.328;2022-08-19T03:00:32;11.73;;;6.00;;
70549;SDS011;58101;48.658;2.328;2022-08-19T03:02:58;11.00;;;5.88;;
70549;SDS011;58101;48.658;2.328;2022-08-19T03:05:25;13.93;;;6.00;;
70549;SDS011;58101;48.658;2.328;2022-08-19T03:07:52;10.05;;;5.72;;
70549;SDS011;58101;48.658;2.328;2022-08-19T03:10:18;14.35;;;5.97;;
70549;SDS011;58101;48.658;2.328;2022-08-19T03:12:43;12.15;;;6.10;;
70549;SDS011;58101;48.658;2.328;2022-08-19T03:15:11;13.15;;;6.72;;
70549;SDS011;58101;48.658;2.328;2022-08-19T03:17:37;12.02;;;5.95;;
70549;SDS011;58101;48.658;2.328;2022-08-19T03:20:03;14.70;;;6.47;;
70549;SDS011;58101;48.658;2.328;2022-08-19T03:22:29;13.07;;;6.85;;
70549;SDS011;58101;48.658;2.328;2022-08-19T03:24:55;13.10;;;6.35;;
70549;SDS011;58101;48.658;2.328;2022-08-19T03:27:21;12.68;;;5.97;;
70549;SDS011;58101;48.658;2.328;2022-08-19T03:29:47;13.95;;;6.25;;
70549;SDS011;58101;48.658;2.328;2022-08-19T03:32:13;13.45;;;5.97;;
70549;SDS011;58101;48.658;2.328;2022-08-19T03:34:38;12.88;;;6.35;;
70549;SDS011;58101;48.658;2.328;2022-08-19T03:37:06;10.93;;;5.97;;
70549;SDS011;58101;48.658;2.328;2022-08-19T03:39:33;13.32;;;6.20;;
70549;SDS011;58101;48.658;2.328;2022-08-19T03:42:01;12.10;;;6.00;;
70549;SDS011;58101;48.658;2.328;2022-08-19T03:44:27;14.20;;;6.90;;
70549;SDS011;58101;48.658;2.328;2022-08-19T03:46:57;16.83;;;7.15;;
70549;SDS011;58101;48.658;2.328;2022-08-19T03:49:25;18.42;;;7.90;;
70549;SDS011;58101;48.658;2.328;2022-08-19T03:51:52;13.95;;;6.75;;
70549;SDS011;58101;48.658;2.328;2022-08-19T03:54:19;17.05;;;6.30;;
70549;SDS011;58101;48.658;2.328;2022-08-19T03:56:48;13.20;;;6.70;;
70549;SDS011;58101;48.658;2.328;2022-08-19T03:59:17;13.68;;;6.32;;
70549;SDS011;58101;48.658;2.328;2022-08-19T04:01:46;14.00;;;6.43;;
70549;SDS011;58101;48.658;2.328;2022-08-19T04:04:12;14.18;;;6.35;;
70549;SDS011;58101;48.658;2.328;2022-08-19T04:06:38;14.18;;;6.90;;
70549;SDS011;58101;48.658;2.328;2022-08-19T04:09:05;12.50;;;6.32;;
70549;SDS011;58101;48.658;2.328;2022-08-19T04:11:36;13.43;;;6.30;;
70549;SDS011;58101;48.658;2.328;2022-08-19T04:14:06;13.10;;;5.88;;
70549;SDS011;58101;48.658;2.328;2022-08-19T04:16:33;13.73;;;5.75;;
70549;SDS011;58101;48.658;2.328;2022-08-19T04:19:00;14.90;;;5.55;;
70549;SDS011;58101;48.658;2.328;2022-08-19T04:21:27;13.38;;;5.45;;
70549;SDS011;58101;48.658;2.328;2022-08-19T04:26:23;10.88;;;5.63;;
70549;SDS011;58101;48.658;2.328;2022-08-19T04:28:51;11.05;;;4.60;;
70549;SDS011;58101;48.658;2.328;2022-08-19T04:31:19;12.68;;;5.00;;
70549;SDS011;58101;48.658;2.328;2022-08-19T04:33:52;11.05;;;4.68;;
70549;SDS011;58101;48.658;2.328;2022-08-19T04:36:23;10.80;;;4.85;;
70549;SDS011;58101;48.658;2.328;2022-08-19T04:38:55;11.23;;;4.60;;
70549;SDS011;58101;48.658;2.328;2022-08-19T04:41:22;9.90;;;4.40;;
70549;SDS011;58101;48.658;2.328;2022-08-19T04:44:07;10.30;;;4.15;;
70549;SDS011;58101;48.658;2.328;2022-08-19T04:46:33;9.02;;;4.30;;
70549;SDS011;58101;48.658;2.328;2022-08-19T04:48:59;10.20;;;4.32;;
70549;SDS011;58101;48.658;2.328;2022-08-19T04:51:26;11.23;;;4.40;;
70549;SDS011;58101;48.658;2.328;2022-08-19T04:53:52;10.98;;;4.35;;
70549;SDS011;58101;48.658;2.328;2022-08-19T04:56:19;9.25;;;4.20;;
70549;SDS011;58101;48.658;2.328;2022-08-19T04:58:46;9.20;;;4.35;;
70549;SDS011;58101;48.658;2.328;2022-08-19T05:01:22;12.75;;;4.68;;
70549;SDS011;58101;48.658;2.328;2022-08-19T05:03:50;12.02;;;4.82;;
70549;SDS011;58101;48.658;2.328;2022-08-19T05:06:17;10.70;;;4.30;;
70549;SDS011;58101;48.658;2.328;2022-08-19T05:08:45;12.15;;;4.10;;
70549;SDS011;58101;48.658;2.328;2022-08-19T05:13:45;8.18;;;3.70;;
70549;SDS011;58101;48.658;2.328;2022-08-19T05:16:13;9.55;;;3.90;;
70549;SDS011;58101;48.658;2.328;2022-08-19T05:18:40;8.55;;;3.70;;
70549;SDS011;58101;48.658;2.328;2022-08-19T05:21:24;8.40;;;3.30;;
70549;SDS011;58101;48.658;2.328;2022-08-19T05:24:13;8.65;;;3.58;;
70549;SDS011;58101;48.658;2.328;2022-08-19T05:26:40;8.40;;;3.60;;
70549;SDS011;58101;48.658;2.328;2022-08-19T05:29:08;10.57;;;3.75;;
70549;SDS011;58101;48.658;2.328;2022-08-19T05:34:01;10.85;;;3.90;;
70549;SDS011;58101;48.658;2.328;2022-08-19T05:36:29;8.30;;;3.63;;
70549;SDS011;58101;48.658;2.328;2022-08-19T05:39:00;9.68;;;3.75;;
70549;SDS011;58101;48.658;2.328;2022-08-19T05:41:26;9.20;;;3.38;;
70549;SDS011;58101;48.658;2.328;2022-08-19T05:43:55;8.88;;;3.30;;
70549;SDS011;58101;48.658;2.328;2022-08-19T05:46:25;9.43;;;3.40;;
70549;SDS011;58101;48.658;2.328;2022-08-19T05:48:51;8.75;;;3.75;;
70549;SDS011;58101;48.658;2.328;2022-08-19T05:51:17;9.35;;;3.30;;
70549;SDS011;58101;48.658;2.328;2022-08-19T05:53:43;8.15;;;3.33;;
70549;SDS011;58101;48.658;2.328;2022-08-19T05:56:13;8.23;;;3.20;;
70549;SDS011;58101;48.658;2.328;2022-08-19T05:58:50;9.88;;;3.40;;
70549;SDS011;58101;48.658;2.328;2022-08-19T06:01:17;8.15;;;3.60;;
70549;SDS011;58101;48.658;2.328;2022-08-19T06:03:43;11.02;;;3.40;;
70549;SDS011;58101;48.658;2.328;2022-08-19T06:06:10;8.27;;;3.28;;
70549;SDS011;58101;48.658;2.328;2022-08-19T06:08:37;8.70;;;2.92;;
70549;SDS011;58101;48.658;2.328;2022-08-19T06:13:50;7.28;;;2.72;;
70549;SDS011;58101;48.658;2.328;2022-08-19T06:16:18;7.78;;;3.20;;
70549;SDS011;58101;48.658;2.328;2022-08-19T06:18:47;7.60;;;2.72;;
70549;SDS011;58101;48.658;2.328;2022-08-19T06:21:17;8.40;;;2.95;;
70549;SDS011;58101;48.658;2.328;2022-08-19T06:23:47;7.80;;;2.88;;
70549;SDS011;58101;48.658;2.328;2022-08-19T06:26:14;8.63;;;2.90;;
70549;SDS011;58101;48.658;2.328;2022-08-19T06:28:40;7.60;;;2.63;;
70549;SDS011;58101;48.658;2.328;2022-08-19T06:31:11;8.00;;;2.70;;
70549;SDS011;58101;48.658;2.328;2022-08-19T06:33:46;9.13;;;3.10;;
70549;SDS011;58101;48.658;2.328;2022-08-19T06:36:29;7.38;;;2.17;;
70549;SDS011;58101;48.658;2.328;2022-08-19T06:39:00;6.20;;;2.28;;
70549;SDS011;58101;48.658;2.328;2022-08-19T06:41:30;7.28;;;2.13;;
70549;SDS011;58101;48.658;2.328;2022-08-19T06:43:59;7.70;;;2.50;;
70549;SDS011;58101;48.658;2.328;2022-08-19T06:46:24;6.80;;;2.35;;
70549;SDS011;58101;48.658;2.328;2022-08-19T06:48:51;6.90;;;2.17;;
70549;SDS011;58101;48.658;2.328;2022-08-19T06:51:18;8.32;;;2.50;;
70549;SDS011;58101;48.658;2.328;2022-08-19T06:53:47;6.60;;;2.30;;
70549;SDS011;58101;48.658;2.328;2022-08-19T06:56:15;7.10;;;2.40;;
70549;SDS011;58101;48.658;2.328;2022-08-19T06:58:42;6.80;;;2.30;;
70549;SDS011;58101;48.658;2.328;2022-08-19T07:01:09;6.13;;;2.10;;
70549;SDS011;58101;48.658;2.328;2022-08-19T07:03:35;6.57;;;2.30;;
70549;SDS011;58101;48.658;2.328;2022-08-19T07:06:10;7.50;;;2.30;;
70549;SDS011;58101;48.658;2.328;2022-08-19T07:08:37;6.50;;;2.10;;
70549;SDS011;58101;48.658;2.328;2022-08-19T07:11:08;6.57;;;2.15;;
70549;SDS011;58101;48.658;2.328;2022-08-19T07:13:36;7.03;;;2.05;;
70549;SDS011;58101;48.658;2.328;2022-08-19T07:16:06;6.03;;;1.95;;
70549;SDS011;58101;48.658;2.328;2022-08-19T07:18:33;5.82;;;2.10;;
70549;SDS011;58101;48.658;2.328;2022-08-19T07:21:19;5.82;;;1.85;;
70549;SDS011;58101;48.658;2.328;2022-08-19T07:23:47;5.10;;;1.70;;
70549;SDS011;58101;48.658;2.328;2022-08-19T07:26:26;6.40;;;1.75;;
70549;SDS011;58101;48.658;2.328;2022-08-19T07:28:55;5.18;;;1.83;;
70549;SDS011;58101;48.658;2.328;2022-08-19T07:31:22;6.50;;;1.90;;
70549;SDS011;58101;48.658;2.328;2022-08-19T07:33:50;6.05;;;1.73;;
70549;SDS011;58101;48.658;2.328;2022-08-19T07:36:18;6.60;;;1.70;;
70549;SDS011;58101;48.658;2.328;2022-08-19T07:38:47;6.32;;;1.70;;
70549;SDS011;58101;48.658;2.328;2022-08-19T07:41:17;5.35;;;1.73;;
70549;SDS011;58101;48.658;2.328;2022-08-19T07:43:45;10.57;;;1.65;;
70549;SDS011;58101;48.658;2.328;2022-08-19T07:46:12;5.28;;;1.58;;
70549;SDS011;58101;48.658;2.328;2022-08-19T07:48:38;7.00;;;1.58;;
70549;SDS011;58101;48.658;2.328;2022-08-19T07:51:06;6.75;;;1.70;;
70549;SDS011;58101;48.658;2.328;2022-08-19T07:53:35;6.30;;;1.40;;
70549;SDS011;58101;48.658;2.328;2022-08-19T07:56:01;6.10;;;1.35;;
70549;SDS011;58101;48.658;2.328;2022-08-19T07:58:32;6.45;;;1.50;;
70549;SDS011;58101;48.658;2.328;2022-08-19T08:01:00;5.03;;;1.30;;
70549;SDS011;58101;48.658;2.328;2022-08-19T08:03:30;5.15;;;1.40;;
70549;SDS011;58101;48.658;2.328;2022-08-19T08:06:15;6.75;;;1.40;;
70549;SDS011;58101;48.658;2.328;2022-08-19T08:08:59;5.88;;;1.48;;
70549;SDS011;58101;48.658;2.328;2022-08-19T08:14:20;6.78;;;1.85;;
70549;SDS011;58101;48.658;2.328;2022-08-19T08:16:49;6.28;;;1.70;;
70549;SDS011;58101;48.658;2.328;2022-08-19T08:19:17;6.10;;;1.40;;
70549;SDS011;58101;48.658;2.328;2022-08-19T08:21:44;5.63;;;1.38;;
70549;SDS011;58101;48.658;2.328;2022-08-19T08:24:10;5.28;;;1.35;;
70549;SDS011;58101;48.658;2.328;2022-08-19T08:26:37;5.90;;;1.63;;
70549;SDS011;58101;48.658;2.328;2022-08-19T08:31:29;5.65;;;1.48;;
70549;SDS011;58101;48.658;2.328;2022-08-19T08:33:54;4.93;;;1.30;;
70549;SDS011;58101;48.658;2.328;2022-08-19T08:36:20;7.72;;;1.50;;
70549;SDS011;58101;48.658;2.328;2022-08-19T08:38:46;5.13;;;1.20;;
70549;SDS011;58101;48.658;2.328;2022-08-19T08:43:48;6.05;;;1.45;;
70549;SDS011;58101;48.658;2.328;2022-08-19T08:46:21;5.15;;;1.33;;
70549;SDS011;58101;48.658;2.328;2022-08-19T08:51:26;4.40;;;1.23;;
70549;SDS011;58101;48.658;2.328;2022-08-19T08:53:59;4.63;;;1.40;;
70549;SDS011;58101;48.658;2.328;2022-08-19T08:56:26;5.35;;;1.35;;
70549;SDS011;58101;48.658;2.328;2022-08-19T08:58:59;5.50;;;1.40;;
70549;SDS011;58101;48.658;2.328;2022-08-19T09:01:33;5.28;;;1.40;;
70549;SDS011;58101;48.658;2.328;2022-08-19T09:03:59;5.90;;;1.42;;
70549;SDS011;58101;48.658;2.328;2022-08-19T09:09:18;4.82;;;1.50;;
70549;SDS011;58101;48.658;2.328;2022-08-19T09:17:03;4.78;;;1.40;;
70549;SDS011;58101;48.658;2.328;2022-08-19T09:19:33;5.05;;;1.45;;
70549;SDS011;58101;48.658;2.328;2022-08-19T09:21:59;5.13;;;1.60;;
70549;SDS011;58101;48.658;2.328;2022-08-19T09:24:25;5.43;;;1.40;;
70549;SDS011;58101;48.658;2.328;2022-08-19T09:26:51;5.65;;;1.50;;
70549;SDS011;58101;48.658;2.328;2022-08-19T09:29:17;4.72;;;1.33;;
70549;SDS011;58101;48.658;2.328;2022-08-19T09:31:43;5.03;;;1.30;;
70549;SDS011;58101;48.658;2.328;2022-08-19T09:34:08;7.22;;;1.50;;
70549;SDS011;58101;48.658;2.328;2022-08-19T09:36:34;5.07;;;1.50;;
70549;SDS011;58101;48.658;2.328;2022-08-19T09:39:04;5.65;;;1.77;;
70549;SDS011;58101;48.658;2.328;2022-08-19T09:41:30;4.65;;;1.42;;
70549;SDS011;58101;48.658;2.328;2022-08-19T09:43:57;4.93;;;1.45;;
70549;SDS011;58101;48.658;2.328;2022-08-19T09:46:25;5.10;;;1.50;;
70549;SDS011;58101;48.658;2.328;2022-08-19T09:48:52;5.10;;;1.20;;
70549;SDS011;58101;48.658;2.328;2022-08-19T09:51:20;6.15;;;1.50;;
70549;SDS011;58101;48.658;2.328;2022-08-19T09:53:47;4.53;;;1.20;;
70549;SDS011;58101;48.658;2.328;2022-08-19T09:56:18;5.63;;;1.33;;
70549;SDS011;58101;48.658;2.328;2022-08-19T09:58:45;4.95;;;1.30;;
70549;SDS011;58101;48.658;2.328;2022-08-19T10:01:15;7.22;;;1.45;;
70549;SDS011;58101;48.658;2.328;2022-08-19T10:03:44;5.43;;;1.30;;
70549;SDS011;58101;48.658;2.328;2022-08-19T10:06:14;4.40;;;1.20;;
70549;SDS011;58101;48.658;2.328;2022-08-19T10:08:40;5.80;;;1.50;;
70549;SDS011;58101;48.658;2.328;2022-08-19T10:11:06;6.10;;;1.48;;
70549;SDS011;58101;48.658;2.328;2022-08-19T10:13:33;4.78;;;1.30;;
70549;SDS011;58101;48.658;2.328;2022-08-19T10:16:04;6.38;;;1.40;;
70549;SDS011;58101;48.658;2.328;2022-08-19T10:18:32;5.00;;;1.38;;
70549;SDS011;58101;48.658;2.328;2022-08-19T10:21:11;5.97;;;1.30;;
70549;SDS011;58101;48.658;2.328;2022-08-19T10:23:43;5.13;;;1.40;;
70549;SDS011;58101;48.658;2.328;2022-08-19T10:26:10;4.22;;;1.13;;
70549;SDS011;58101;48.658;2.328;2022-08-19T10:28:38;4.70;;;1.27;;
70549;SDS011;58101;48.658;2.328;2022-08-19T10:31:08;5.40;;;1.30;;
70549;SDS011;58101;48.658;2.328;2022-08-19T10:33:42;4.90;;;1.40;;
70549;SDS011;58101;48.658;2.328;2022-08-19T10:36:09;6.53;;;1.50;;
70549;SDS011;58101;48.658;2.328;2022-08-19T10:38:39;4.68;;;1.25;;
70549;SDS011;58101;48.658;2.328;2022-08-19T10:43:33;6.03;;;1.30;;
70549;SDS011;58101;48.658;2.328;2022-08-19T10:46:01;5.50;;;1.50;;
70549;SDS011;58101;48.658;2.328;2022-08-19T10:48:28;5.38;;;1.38;;
70549;SDS011;58101;48.658;2.328;2022-08-19T10:50:54;5.90;;;1.40;;
70549;SDS011;58101;48.658;2.328;2022-08-19T10:53:41;5.18;;;1.30;;
70549;SDS011;58101;48.658;2.328;2022-08-19T10:56:07;4.90;;;1.33;;
70549;SDS011;58101;48.658;2.328;2022-08-19T10:58:51;4.47;;;1.50;;
70549;SDS011;58101;48.658;2.328;2022-08-19T11:01:17;4.70;;;1.30;;
70549;SDS011;58101;48.658;2.328;2022-08-19T11:03:43;6.78;;;1.65;;
70549;SDS011;58101;48.658;2.328;2022-08-19T11:06:10;5.65;;;1.40;;
70549;SDS011;58101;48.658;2.328;2022-08-19T11:08:36;4.40;;;1.30;;
70549;SDS011;58101;48.658;2.328;2022-08-19T11:13:29;5.97;;;1.40;;
70549;SDS011;58101;48.658;2.328;2022-08-19T11:15:57;5.10;;;1.30;;
70549;SDS011;58101;48.658;2.328;2022-08-19T11:18:28;5.18;;;1.33;;
70549;SDS011;58101;48.658;2.328;2022-08-19T11:20:53;5.32;;;1.40;;
70549;SDS011;58101;48.658;2.328;2022-08-19T11:23:19;4.95;;;1.30;;
70549;SDS011;58101;48.658;2.328;2022-08-19T11:28:11;4.63;;;1.20;;
70549;SDS011;58101;48.658;2.328;2022-08-19T11:30:38;4.65;;;1.17;;
70549;SDS011;58101;48.658;2.328;2022-08-19T11:33:04;4.60;;;1.20;;
70549;SDS011;58101;48.658;2.328;2022-08-19T11:37:55;4.93;;;1.35;;
70549;SDS011;58101;48.658;2.328;2022-08-19T11:40:26;4.53;;;1.30;;
70549;SDS011;58101;48.658;2.328;2022-08-19T11:45:21;5.00;;;1.30;;
70549;SDS011;58101;48.658;2.328;2022-08-19T11:47:52;4.55;;;1.30;;
70549;SDS011;58101;48.658;2.328;2022-08-19T11:52:43;4.70;;;1.20;;
70549;SDS011;58101;48.658;2.328;2022-08-19T11:55:09;4.50;;;1.10;;
70549;SDS011;58101;48.658;2.328;2022-08-19T11:57:36;5.30;;;1.17;;
70549;SDS011;58101;48.658;2.328;2022-08-19T12:02:29;4.35;;;1.17;;
70549;SDS011;58101;48.658;2.328;2022-08-19T12:07:20;4.47;;;1.20;;
70549;SDS011;58101;48.658;2.328;2022-08-19T12:12:12;7.13;;;1.20;;
70549;SDS011;58101;48.658;2.328;2022-08-19T12:17:03;4.22;;;1.10;;
70549;SDS011;58101;48.658;2.328;2022-08-19T12:19:32;5.90;;;1.20;;
70549;SDS011;58101;48.658;2.328;2022-08-19T12:21:59;4.70;;;1.13;;
70549;SDS011;58101;48.658;2.328;2022-08-19T12:24:29;5.38;;;1.20;;
70549;SDS011;58101;48.658;2.328;2022-08-19T12:26:56;7.93;;;1.40;;
70549;SDS011;58101;48.658;2.328;2022-08-19T12:29:23;4.65;;;1.17;;
70549;SDS011;58101;48.658;2.328;2022-08-19T12:31:53;4.45;;;1.10;;
70549;SDS011;58101;48.658;2.328;2022-08-19T12:36:45;3.47;;;1.00;;
70549;SDS011;58101;48.658;2.328;2022-08-19T12:41:36;5.00;;;1.40;;
70549;SDS011;58101;48.658;2.328;2022-08-19T12:44:02;4.50;;;1.10;;
70549;SDS011;58101;48.658;2.328;2022-08-19T12:48:53;4.18;;;1.10;;
70549;SDS011;58101;48.658;2.328;2022-08-19T12:53:45;4.55;;;1.10;;
70549;SDS011;58101;48.658;2.328;2022-08-19T12:56:12;4.75;;;1.17;;
70549;SDS011;58101;48.658;2.328;2022-08-19T12:58:39;4.30;;;1.25;;
70549;SDS011;58101;48.658;2.328;2022-08-19T13:01:10;4.32;;;1.10;;
70549;SDS011;58101;48.658;2.328;2022-08-19T13:03:39;4.03;;;1.20;;
70549;SDS011;58101;48.658;2.328;2022-08-19T13:08:31;3.95;;;1.15;;
70549;SDS011;58101;48.658;2.328;2022-08-19T13:13:23;6.53;;;1.30;;
70549;SDS011;58101;48.658;2.328;2022-08-19T13:15:51;4.50;;;1.10;;
70549;SDS011;58101;48.658;2.328;2022-08-19T13:20:42;5.60;;;1.15;;
70549;SDS011;58101;48.658;2.328;2022-08-19T13:25:33;4.90;;;1.30;;
70549;SDS011;58101;48.658;2.328;2022-08-19T13:30:25;6.38;;;1.67;;
70549;SDS011;58101;48.658;2.328;2022-08-19T13:33:12;4.47;;;1.15;;
70549;SDS011;58101;48.658;2.328;2022-08-19T13:35:46;4.80;;;1.17;;
70549;SDS011;58101;48.658;2.328;2022-08-19T13:38:14;3.72;;;1.02;;
70549;SDS011;58101;48.658;2.328;2022-08-19T13:40:42;4.18;;;1.00;;
70549;SDS011;58101;48.658;2.328;2022-08-19T13:43:09;4.32;;;1.25;;
70549;SDS011;58101;48.658;2.328;2022-08-19T13:45:35;5.38;;;1.20;;
70549;SDS011;58101;48.658;2.328;2022-08-19T13:50:31;4.68;;;1.25;;
70549;SDS011;58101;48.658;2.328;2022-08-19T13:52:57;4.68;;;1.10;;
70549;SDS011;58101;48.658;2.328;2022-08-19T13:55:24;5.32;;;1.40;;
70549;SDS011;58101;48.658;2.328;2022-08-19T13:57:52;5.50;;;1.50;;
70549;SDS011;58101;48.658;2.328;2022-08-19T14:00:18;5.50;;;1.30;;
70549;SDS011;58101;48.658;2.328;2022-08-19T14:02:46;5.65;;;1.30;;
70549;SDS011;58101;48.658;2.328;2022-08-19T14:05:13;4.28;;;1.10;;
70549;SDS011;58101;48.658;2.328;2022-08-19T14:07:40;5.50;;;1.30;;
70549;SDS011;58101;48.658;2.328;2022-08-19T14:10:07;6.70;;;1.38;;
70549;SDS011;58101;48.658;2.328;2022-08-19T14:12:35;5.85;;;1.30;;
70549;SDS011;58101;48.658;2.328;2022-08-19T14:15:02;7.22;;;1.30;;
70549;SDS011;58101;48.658;2.328;2022-08-19T14:17:28;5.57;;;1.30;;
70549;SDS011;58101;48.658;2.328;2022-08-19T14:19:57;4.82;;;1.25;;
70549;SDS011;58101;48.658;2.328;2022-08-19T14:22:28;5.82;;;1.30;;
70549;SDS011;58101;48.658;2.328;2022-08-19T14:24:56;4.40;;;1.30;;
70549;SDS011;58101;48.658;2.328;2022-08-19T14:27:22;5.63;;;1.40;;
70549;SDS011;58101;48.658;2.328;2022-08-19T14:29:50;4.75;;;1.27;;
70549;SDS011;58101;48.658;2.328;2022-08-19T14:34:42;5.18;;;1.20;;
70549;SDS011;58101;48.658;2.328;2022-08-19T14:37:10;6.03;;;1.60;;
70549;SDS011;58101;48.658;2.328;2022-08-19T14:39:42;7.65;;;1.52;;
70549;SDS011;58101;48.658;2.328;2022-08-19T14:42:10;5.97;;;1.17;;
70549;SDS011;58101;48.658;2.328;2022-08-19T14:44:37;4.88;;;1.20;;
70549;SDS011;58101;48.658;2.328;2022-08-19T14:49:28;4.90;;;1.20;;
70549;SDS011;58101;48.658;2.328;2022-08-19T14:51:54;4.97;;;1.20;;
70549;SDS011;58101;48.658;2.328;2022-08-19T14:54:20;4.10;;;1.00;;
70549;SDS011;58101;48.658;2.328;2022-08-19T14:56:46;5.40;;;1.10;;
70549;SDS011;58101;48.658;2.328;2022-08-19T14:59:12;3.03;;;0.90;;
70549;SDS011;58101;48.658;2.328;2022-08-19T15:01:37;5.13;;;1.38;;
70549;SDS011;58101;48.658;2.328;2022-08-19T15:04:03;4.10;;;1.20;;
70549;SDS011;58101;48.658;2.328;2022-08-19T15:06:29;5.30;;;1.10;;
70549;SDS011;58101;48.658;2.328;2022-08-19T15:11:23;3.65;;;1.08;;
70549;SDS011;58101;48.658;2.328;2022-08-19T15:13:52;5.45;;;1.33;;
70549;SDS011;58101;48.658;2.328;2022-08-19T15:16:19;4.50;;;1.05;;
70549;SDS011;58101;48.658;2.328;2022-08-19T15:18:48;5.20;;;1.27;;
70549;SDS011;58101;48.658;2.328;2022-08-19T15:21:15;4.80;;;1.17;;
70549;SDS011;58101;48.658;2.328;2022-08-19T15:23:43;4.03;;;1.02;;
70549;SDS011;58101;48.658;2.328;2022-08-19T15:26:13;3.80;;;1.00;;
70549;SDS011;58101;48.658;2.328;2022-08-19T15:28:39;5.88;;;1.17;;
70549;SDS011;58101;48.658;2.328;2022-08-19T15:31:06;4.20;;;1.10;;
70549;SDS011;58101;48.658;2.328;2022-08-19T15:33:32;3.70;;;1.10;;
70549;SDS011;58101;48.658;2.328;2022-08-19T15:36:01;4.32;;;0.90;;
70549;SDS011;58101;48.658;2.328;2022-08-19T15:38:28;3.97;;;1.02;;
70549;SDS011;58101;48.658;2.328;2022-08-19T15:40:54;4.10;;;0.90;;
70549;SDS011;58101;48.658;2.328;2022-08-19T15:43:40;4.38;;;1.00;;
70549;SDS011;58101;48.658;2.328;2022-08-19T15:46:07;3.97;;;1.00;;
70549;SDS011;58101;48.658;2.328;2022-08-19T15:48:33;4.57;;;0.90;;
70549;SDS011;58101;48.658;2.328;2022-08-19T15:50:58;3.63;;;1.08;;
70549;SDS011;58101;48.658;2.328;2022-08-19T15:53:24;4.88;;;1.10;;
70549;SDS011;58101;48.658;2.328;2022-08-19T15:55:50;4.07;;;1.00;;
70549;SDS011;58101;48.658;2.328;2022-08-19T16:01:01;3.70;;;1.10;;
70549;SDS011;58101;48.658;2.328;2022-08-19T16:03:48;4.18;;;0.98;;
70549;SDS011;58101;48.658;2.328;2022-08-19T16:06:33;4.00;;;1.05;;
70549;SDS011;58101;48.658;2.328;2022-08-19T16:09:00;5.68;;;1.10;;
70549;SDS011;58101;48.658;2.328;2022-08-19T16:11:29;3.83;;;0.90;;
70549;SDS011;58101;48.658;2.328;2022-08-19T16:13:56;3.60;;;1.00;;
70549;SDS011;58101;48.658;2.328;2022-08-19T16:16:24;6.40;;;1.23;;
70549;SDS011;58101;48.658;2.328;2022-08-19T16:18:55;4.50;;;1.10;;
70549;SDS011;58101;48.658;2.328;2022-08-19T16:21:22;4.93;;;1.02;;
70549;SDS011;58101;48.658;2.328;2022-08-19T16:23:50;4.75;;;1.20;;
70549;SDS011;58101;48.658;2.328;2022-08-19T16:26:17;6.60;;;1.10;;